Time;durP1;ratioP1;P1;durP2;ratioP2;P2;SDS_P1;SDS_P2;PMS_P1;PMS_P2;Temp;Humidity;BMP_temperature;BMP_pressure;BME280_temperature;BME280_humidity;BME280_pressure;Samples;Min_cycle;Max_cycle;Signal;HPM_P1;HPM_P2
2022/03/10 00:00:49;;;;;;;23.47;11.63;;;;;;;;;;5026988;28;20559;-67
2022/03/10 00:03:14;;;;;;;24.90;12.13;;;;;;;;;;5020407;28;20638;-67
2022/03/10 00:05:39;;;;;;;23.97;11.83;;;;;;;;;;5026468;28;20265;-67
2022/03/10 00:08:05;;;;;;;24.77;11.60;;;;;;;;;;5023152;28;20230;-68
2022/03/10 00:10:30;;;;;;;20.80;10.97;;;;;;;;;;5028742;28;20174;-67
2022/03/10 00:12:56;;;;;;;25.93;11.77;;;;;;;;;;5025448;28;20199;-66
2022/03/10 00:15:24;;;;;;;24.33;11.73;;;;;;;;;;5024854;28;20685;-67
2022/03/10 00:17:50;;;;;;;25.37;11.67;;;;;;;;;;5025206;28;20622;-67
2022/03/10 00:20:16;;;;;;;26.97;11.83;;;;;;;;;;5025679;28;20202;-67
2022/03/10 00:22:46;;;;;;;22.93;11.20;;;;;;;;;;5018982;28;20192;-67
2022/03/10 00:25:13;;;;;;;22.93;11.13;;;;;;;;;;5038178;28;20519;-67
2022/03/10 00:27:38;;;;;;;26.73;12.10;;;;;;;;;;5017718;28;20197;-67
2022/03/10 00:30:04;;;;;;;27.07;12.63;;;;;;;;;;5022672;28;20174;-67
2022/03/10 00:32:30;;;;;;;29.67;12.37;;;;;;;;;;5019277;28;20183;-67
2022/03/10 00:34:55;;;;;;;26.97;11.93;;;;;;;;;;5042619;28;20315;-67
2022/03/10 00:37:20;;;;;;;23.30;11.93;;;;;;;;;;5041590;28;20265;-67
2022/03/10 00:39:46;;;;;;;28.43;12.43;;;;;;;;;;5037925;28;20173;-67
2022/03/10 00:42:11;;;;;;;26.93;11.57;;;;;;;;;;5032662;28;20476;-66
2022/03/10 00:44:36;;;;;;;25.73;12.83;;;;;;;;;;5026947;28;20595;-67
2022/03/10 00:47:02;;;;;;;24.23;12.53;;;;;;;;;;5031045;28;20611;-67
2022/03/10 00:49:27;;;;;;;22.53;10.93;;;;;;;;;;5027480;28;20339;-67
2022/03/10 00:51:52;;;;;;;23.30;11.47;;;;;;;;;;5027645;28;20272;-67
2022/03/10 00:54:18;;;;;;;23.80;11.57;;;;;;;;;;5032492;28;20208;-67
2022/03/10 00:56:43;;;;;;;24.63;11.77;;;;;;;;;;5037537;28;20194;-68
2022/03/10 00:59:08;;;;;;;24.07;11.10;;;;;;;;;;5023708;28;20323;-67
2022/03/10 01:01:34;;;;;;;25.07;11.23;;;;;;;;;;5025389;28;20256;-66
2022/03/10 01:03:59;;;;;;;24.80;11.30;;;;;;;;;;5028727;28;20666;-67
2022/03/10 01:06:24;;;;;;;23.03;11.37;;;;;;;;;;5030236;28;20225;-67
2022/03/10 01:08:49;;;;;;;24.73;11.90;;;;;;;;;;5024615;28;20228;-67
2022/03/10 01:11:15;;;;;;;27.00;11.83;;;;;;;;;;5021743;28;20481;-67
2022/03/10 01:13:40;;;;;;;22.80;12.00;;;;;;;;;;5022605;28;20186;-67
2022/03/10 01:16:06;;;;;;;24.60;11.13;;;;;;;;;;5031980;28;20733;-67
2022/03/10 01:18:31;;;;;;;23.00;11.50;;;;;;;;;;5038271;28;20709;-67
2022/03/10 01:20:56;;;;;;;22.10;11.03;;;;;;;;;;5048132;28;20236;-67
2022/03/10 01:23:22;;;;;;;20.90;11.20;;;;;;;;;;5023059;28;20280;-66
2022/03/10 01:25:47;;;;;;;30.73;11.13;;;;;;;;;;5035713;28;20221;-66
2022/03/10 01:28:12;;;;;;;21.77;10.90;;;;;;;;;;5037647;28;20196;-66
2022/03/10 01:30:38;;;;;;;23.83;10.13;;;;;;;;;;5031491;28;20197;-67
2022/03/10 01:33:03;;;;;;;20.57;10.50;;;;;;;;;;5035805;28;20198;-66
2022/03/10 01:35:28;;;;;;;24.30;10.17;;;;;;;;;;5040851;28;20175;-66
2022/03/10 01:37:54;;;;;;;21.37;10.83;;;;;;;;;;5036970;28;20229;-67
2022/03/10 01:40:19;;;;;;;21.83;11.00;;;;;;;;;;5029181;28;20229;-68
2022/03/10 01:42:47;;;;;;;22.57;12.30;;;;;;;;;;5043191;28;20628;-67
2022/03/10 01:45:13;;;;;;;23.17;10.57;;;;;;;;;;5033822;28;20182;-66
2022/03/10 01:47:38;;;;;;;22.03;10.73;;;;;;;;;;5026517;28;20675;-67
2022/03/10 01:50:05;;;;;;;22.73;10.97;;;;;;;;;;5016697;28;20661;-66
2022/03/10 01:52:31;;;;;;;23.93;12.17;;;;;;;;;;5030617;28;20197;-67
2022/03/10 01:54:57;;;;;;;23.97;11.33;;;;;;;;;;5047445;28;20268;-67
2022/03/10 01:57:24;;;;;;;24.23;10.87;;;;;;;;;;5036788;28;20550;-67
2022/03/10 01:59:49;;;;;;;22.27;11.30;;;;;;;;;;5025413;28;20188;-68
2022/03/10 02:02:15;;;;;;;20.87;10.90;;;;;;;;;;5016460;28;20187;-67
2022/03/10 02:04:41;;;;;;;24.13;10.83;;;;;;;;;;5025510;28;20186;-66
2022/03/10 02:10:16;;;;;;;25.20;10.90;;;;;;;;;;5028267;28;20348;-66
2022/03/10 02:12:40;;;;;;;22.23;10.93;;;;;;;;;;5036342;28;20193;-67
2022/03/10 02:18:08;;;;;;;20.23;10.13;;;;;;;;;;5008767;28;20395;-67
2022/03/10 02:20:35;;;;;;;20.20;10.77;;;;;;;;;;5029141;28;20191;-67
2022/03/10 02:23:01;;;;;;;22.47;11.00;;;;;;;;;;5011069;28;20320;-66
2022/03/10 02:25:27;;;;;;;25.77;11.83;;;;;;;;;;5037582;28;20177;-67
2022/03/10 02:27:55;;;;;;;20.63;10.57;;;;;;;;;;5033328;28;20634;-67
2022/03/10 02:30:22;;;;;;;22.17;11.23;;;;;;;;;;5027091;28;20186;-66
2022/03/10 02:32:48;;;;;;;23.23;11.23;;;;;;;;;;5037663;28;20175;-67
2022/03/10 02:35:14;;;;;;;25.23;11.47;;;;;;;;;;5027841;28;20185;-67
2022/03/10 02:37:40;;;;;;;22.83;10.87;;;;;;;;;;5029484;28;20247;-66
2022/03/10 02:40:06;;;;;;;22.70;11.40;;;;;;;;;;5027729;28;20174;-67
2022/03/10 02:42:31;;;;;;;21.47;11.23;;;;;;;;;;5027274;28;20178;-67
2022/03/10 02:44:56;;;;;;;27.00;11.33;;;;;;;;;;5028904;28;20189;-67
2022/03/10 02:47:22;;;;;;;20.87;10.30;;;;;;;;;;5024790;28;20174;-67
2022/03/10 02:49:47;;;;;;;21.93;10.93;;;;;;;;;;5022513;28;20225;-67
2022/03/10 02:52:13;;;;;;;22.67;10.73;;;;;;;;;;5042110;28;20182;-67
2022/03/10 02:54:38;;;;;;;23.17;10.73;;;;;;;;;;5030711;28;20177;-67
2022/03/10 02:57:04;;;;;;;25.17;11.53;;;;;;;;;;5029165;28;20186;-67
2022/03/10 02:59:29;;;;;;;25.90;12.23;;;;;;;;;;5022656;28;20232;-67
2022/03/10 03:01:56;;;;;;;24.07;11.23;;;;;;;;;;5027102;28;20182;-67
2022/03/10 03:04:22;;;;;;;22.33;11.13;;;;;;;;;;5017165;28;20265;-67
2022/03/10 03:06:47;;;;;;;26.73;11.63;;;;;;;;;;5029609;28;20222;-67
2022/03/10 03:09:12;;;;;;;25.43;11.03;;;;;;;;;;5023916;28;20277;-67
2022/03/10 03:11:38;;;;;;;19.57;10.33;;;;;;;;;;5028706;28;20178;-68
2022/03/10 03:14:04;;;;;;;23.07;10.93;;;;;;;;;;5020723;28;20209;-67
2022/03/10 03:16:30;;;;;;;33.13;12.00;;;;;;;;;;5026676;28;20178;-67
2022/03/10 03:18:56;;;;;;;30.00;12.00;;;;;;;;;;5018497;28;20183;-66
2022/03/10 03:21:23;;;;;;;22.93;11.03;;;;;;;;;;5022928;28;20263;-67
2022/03/10 03:23:49;;;;;;;26.37;11.47;;;;;;;;;;5018576;28;20186;-67
2022/03/10 03:26:14;;;;;;;20.80;10.27;;;;;;;;;;5044981;28;20226;-67
2022/03/10 03:28:40;;;;;;;23.03;10.87;;;;;;;;;;5038470;28;20178;-66
2022/03/10 03:31:05;;;;;;;20.17;9.97;;;;;;;;;;5026404;28;20283;-66
2022/03/10 03:33:31;;;;;;;20.97;10.47;;;;;;;;;;5023900;28;20182;-67
2022/03/10 03:35:57;;;;;;;23.77;11.13;;;;;;;;;;5024873;28;20186;-67
2022/03/10 03:38:23;;;;;;;22.37;11.13;;;;;;;;;;5029607;28;20463;-67
2022/03/10 03:40:48;;;;;;;21.73;10.33;;;;;;;;;;5031458;28;20296;-66
2022/03/10 03:43:14;;;;;;;19.10;10.03;;;;;;;;;;5028932;28;20201;-66
2022/03/10 03:45:39;;;;;;;22.63;10.80;;;;;;;;;;5029567;28;20181;-67
2022/03/10 03:48:04;;;;;;;29.27;12.47;;;;;;;;;;5025430;28;20206;-67
2022/03/10 03:50:30;;;;;;;23.97;12.13;;;;;;;;;;5028509;28;20182;-67
2022/03/10 03:52:55;;;;;;;26.90;12.07;;;;;;;;;;5026286;28;20186;-67
2022/03/10 03:55:20;;;;;;;25.03;10.80;;;;;;;;;;5020197;28;20230;-66
2022/03/10 03:57:46;;;;;;;25.23;11.37;;;;;;;;;;5026472;28;20178;-66
2022/03/10 04:00:12;;;;;;;23.17;11.93;;;;;;;;;;5022950;28;20577;-67
2022/03/10 04:02:37;;;;;;;22.83;11.27;;;;;;;;;;5024047;28;20551;-67
2022/03/10 04:05:06;;;;;;;21.70;11.00;;;;;;;;;;5020106;28;20200;-67
2022/03/10 04:07:31;;;;;;;24.27;11.70;;;;;;;;;;5028995;28;20226;-68
2022/03/10 04:09:56;;;;;;;28.83;11.83;;;;;;;;;;5035953;28;20276;-67
2022/03/10 04:12:22;;;;;;;19.87;10.43;;;;;;;;;;5030893;28;20202;-67
2022/03/10 04:14:47;;;;;;;22.23;10.40;;;;;;;;;;5032064;28;20380;-66
2022/03/10 04:17:12;;;;;;;19.80;9.37;;;;;;;;;;5020042;28;20189;-67
2022/03/10 04:19:38;;;;;;;23.43;10.80;;;;;;;;;;5030750;28;20185;-66
2022/03/10 04:22:04;;;;;;;24.17;11.03;;;;;;;;;;5034720;28;20585;-66
2022/03/10 04:24:29;;;;;;;21.87;10.63;;;;;;;;;;5029879;28;20174;-67
2022/03/10 04:26:55;;;;;;;25.57;11.40;;;;;;;;;;5042014;28;20173;-67
2022/03/10 04:29:21;;;;;;;23.17;10.73;;;;;;;;;;5020060;28;20186;-67
2022/03/10 04:31:46;;;;;;;22.43;10.90;;;;;;;;;;5031382;28;20233;-67
2022/03/10 04:34:11;;;;;;;24.93;11.17;;;;;;;;;;5025733;28;20178;-67
2022/03/10 04:36:37;;;;;;;25.57;11.40;;;;;;;;;;5028376;28;20193;-67
2022/03/10 04:39:03;;;;;;;22.47;10.73;;;;;;;;;;5024506;28;20200;-67
2022/03/10 04:41:29;;;;;;;22.33;11.00;;;;;;;;;;5033707;28;20209;-67
2022/03/10 04:43:54;;;;;;;20.53;10.33;;;;;;;;;;5029561;28;20674;-67
2022/03/10 04:46:20;;;;;;;23.07;11.27;;;;;;;;;;5028196;28;20183;-67
2022/03/10 04:48:45;;;;;;;23.47;10.40;;;;;;;;;;5019143;28;20191;-67
2022/03/10 04:51:10;;;;;;;25.33;11.70;;;;;;;;;;5042215;28;20216;-67
2022/03/10 04:53:36;;;;;;;26.47;11.47;;;;;;;;;;5029448;28;20182;-67
2022/03/10 04:56:01;;;;;;;25.17;12.13;;;;;;;;;;5039666;28;20277;-67
2022/03/10 04:58:27;;;;;;;25.10;11.37;;;;;;;;;;5043355;28;20194;-67
2022/03/10 05:00:52;;;;;;;25.23;10.93;;;;;;;;;;5029334;28;20233;-66
2022/03/10 05:03:17;;;;;;;24.60;12.00;;;;;;;;;;5023147;28;20194;-67
2022/03/10 05:05:43;;;;;;;27.47;11.93;;;;;;;;;;5022419;28;20295;-67
2022/03/10 05:08:08;;;;;;;22.37;11.03;;;;;;;;;;5031517;28;20234;-67
2022/03/10 05:10:33;;;;;;;26.47;11.70;;;;;;;;;;5029308;28;20235;-67
2022/03/10 05:13:02;;;;;;;23.77;11.30;;;;;;;;;;5027133;28;20281;-67
2022/03/10 05:15:30;;;;;;;23.57;10.70;;;;;;;;;;5027689;28;20264;-67
2022/03/10 05:17:57;;;;;;;26.13;11.33;;;;;;;;;;5025838;28;20202;-67
2022/03/10 05:20:24;;;;;;;27.27;11.00;;;;;;;;;;5025871;28;20595;-66
2022/03/10 05:22:51;;;;;;;28.30;11.57;;;;;;;;;;5027190;28;20190;-67
2022/03/10 05:25:18;;;;;;;29.23;12.27;;;;;;;;;;5035683;28;20611;-66
2022/03/10 05:27:45;;;;;;;28.23;12.63;;;;;;;;;;5038251;28;20636;-67
2022/03/10 05:30:11;;;;;;;23.33;10.83;;;;;;;;;;5019491;28;20186;-67
2022/03/10 05:32:37;;;;;;;26.63;11.50;;;;;;;;;;5022034;28;20210;-67
2022/03/10 05:35:03;;;;;;;32.27;12.13;;;;;;;;;;5019372;28;20622;-67
2022/03/10 05:37:34;;;;;;;21.23;10.20;;;;;;;;;;5029407;28;20182;-67
2022/03/10 05:40:00;;;;;;;23.67;9.87;;;;;;;;;;5027376;28;20177;-67
2022/03/10 05:42:25;;;;;;;21.23;10.50;;;;;;;;;;5037169;28;20194;-67
2022/03/10 05:44:51;;;;;;;23.27;11.57;;;;;;;;;;5040623;28;20204;-67
2022/03/10 05:47:16;;;;;;;26.93;12.27;;;;;;;;;;5037767;28;20264;-67
2022/03/10 05:49:41;;;;;;;25.13;10.53;;;;;;;;;;5031046;28;20212;-67
2022/03/10 05:52:07;;;;;;;22.00;10.10;;;;;;;;;;5045942;28;20435;-67
2022/03/10 05:54:32;;;;;;;30.30;11.17;;;;;;;;;;5028459;28;20598;-67
2022/03/10 05:56:58;;;;;;;23.43;9.63;;;;;;;;;;5042279;28;20220;-67
2022/03/10 05:59:23;;;;;;;20.90;11.13;;;;;;;;;;5021189;28;20534;-67
2022/03/10 06:01:49;;;;;;;24.13;10.57;;;;;;;;;;5040490;28;20293;-66
2022/03/10 06:04:15;;;;;;;23.77;11.13;;;;;;;;;;5010107;28;20506;-66
2022/03/10 06:06:43;;;;;;;24.50;11.03;;;;;;;;;;4985559;28;1140387;-67
2022/03/10 06:09:09;;;;;;;22.83;10.70;;;;;;;;;;5030364;28;20218;-67
2022/03/10 06:11:34;;;;;;;26.03;10.43;;;;;;;;;;5029901;28;20627;-67
2022/03/10 06:13:59;;;;;;;18.60;9.57;;;;;;;;;;5032312;28;20273;-67
2022/03/10 06:16:25;;;;;;;24.17;10.60;;;;;;;;;;5025539;28;20182;-67
2022/03/10 06:18:50;;;;;;;24.30;10.63;;;;;;;;;;5036677;28;20517;-67
2022/03/10 06:21:16;;;;;;;20.93;10.03;;;;;;;;;;5039564;28;20232;-66
2022/03/10 06:23:41;;;;;;;23.13;10.47;;;;;;;;;;5036276;28;20182;-67
2022/03/10 06:26:06;;;;;;;22.23;10.13;;;;;;;;;;5035270;28;20272;-67
2022/03/10 06:28:32;;;;;;;23.07;10.20;;;;;;;;;;5037214;28;20177;-67
2022/03/10 06:30:58;;;;;;;26.53;11.43;;;;;;;;;;5028784;28;20202;-67
2022/03/10 06:33:23;;;;;;;23.33;11.50;;;;;;;;;;5029120;28;20256;-68
2022/03/10 06:35:48;;;;;;;22.63;11.20;;;;;;;;;;5029228;28;20178;-66
2022/03/10 06:38:14;;;;;;;23.77;10.10;;;;;;;;;;5040006;28;20178;-67
2022/03/10 06:40:39;;;;;;;20.40;10.67;;;;;;;;;;5040253;28;20277;-67
2022/03/10 06:43:05;;;;;;;21.67;10.83;;;;;;;;;;5043969;28;20186;-67
2022/03/10 06:45:31;;;;;;;18.90;9.90;;;;;;;;;;5041034;28;20641;-68
2022/03/10 06:47:57;;;;;;;26.90;10.67;;;;;;;;;;5043728;28;20533;-67
2022/03/10 06:50:22;;;;;;;20.60;9.43;;;;;;;;;;5034615;28;20429;-67
2022/03/10 06:52:48;;;;;;;18.87;9.83;;;;;;;;;;5033609;28;20181;-67
2022/03/10 06:55:13;;;;;;;23.13;10.03;;;;;;;;;;5030178;28;20189;-67
2022/03/10 06:57:39;;;;;;;20.07;10.10;;;;;;;;;;5023838;28;20174;-67
2022/03/10 07:00:07;;;;;;;19.27;9.53;;;;;;;;;;5018645;28;20290;-67
2022/03/10 07:02:32;;;;;;;20.00;9.63;;;;;;;;;;5028964;28;20202;-67
2022/03/10 07:04:58;;;;;;;19.47;9.33;;;;;;;;;;5018543;28;20221;-68
2022/03/10 07:07:23;;;;;;;18.33;9.07;;;;;;;;;;5018263;28;20650;-67
2022/03/10 07:09:49;;;;;;;22.30;9.30;;;;;;;;;;5031859;28;20177;-66
2022/03/10 07:12:14;;;;;;;17.63;9.70;;;;;;;;;;5037191;28;20183;-67
2022/03/10 07:14:40;;;;;;;22.50;9.83;;;;;;;;;;5040669;28;20186;-67
2022/03/10 07:17:06;;;;;;;19.90;8.97;;;;;;;;;;5044941;28;20193;-67
2022/03/10 07:19:31;;;;;;;19.67;8.37;;;;;;;;;;5043358;28;20189;-67
2022/03/10 07:21:56;;;;;;;19.83;9.27;;;;;;;;;;5040180;28;20213;-67
2022/03/10 07:24:22;;;;;;;18.30;8.37;;;;;;;;;;5042209;28;20181;-68
2022/03/10 07:26:47;;;;;;;17.87;8.30;;;;;;;;;;5038801;28;20188;-68
2022/03/10 07:29:12;;;;;;;18.23;9.20;;;;;;;;;;5041046;28;20178;-68
2022/03/10 07:31:38;;;;;;;17.73;8.90;;;;;;;;;;5035019;28;20294;-67
2022/03/10 07:34:03;;;;;;;14.33;7.40;;;;;;;;;;5040125;28;20455;-67
2022/03/10 07:36:29;;;;;;;17.33;8.83;;;;;;;;;;5038332;28;20180;-67
2022/03/10 07:38:54;;;;;;;17.87;8.47;;;;;;;;;;5039531;28;20188;-67
2022/03/10 07:41:20;;;;;;;19.20;8.43;;;;;;;;;;5040440;28;20292;-68
2022/03/10 07:43:45;;;;;;;18.57;8.77;;;;;;;;;;5044871;28;20253;-66
2022/03/10 07:46:11;;;;;;;17.30;8.20;;;;;;;;;;5039474;28;20177;-67
2022/03/10 07:48:36;;;;;;;16.77;8.67;;;;;;;;;;5043849;28;20173;-67
2022/03/10 07:51:02;;;;;;;16.70;8.20;;;;;;;;;;5038417;28;20585;-67
2022/03/10 07:53:27;;;;;;;17.67;8.63;;;;;;;;;;5044859;28;20192;-67
2022/03/10 07:55:55;;;;;;;18.20;8.63;;;;;;;;;;5039885;28;20185;-67
2022/03/10 07:58:25;;;;;;;16.63;8.50;;;;;;;;;;5037763;28;20209;-67
2022/03/10 08:00:54;;;;;;;18.33;8.40;;;;;;;;;;5041053;28;20415;-67
2022/03/10 08:03:20;;;;;;;19.50;8.47;;;;;;;;;;5037221;28;20672;-66
2022/03/10 08:05:46;;;;;;;15.47;8.33;;;;;;;;;;5028720;28;20174;-67
2022/03/10 08:08:13;;;;;;;14.47;8.03;;;;;;;;;;5027866;28;20233;-67
2022/03/10 08:10:38;;;;;;;16.47;8.43;;;;;;;;;;5033343;28;20178;-66
2022/03/10 08:13:04;;;;;;;16.00;8.37;;;;;;;;;;5035788;28;20679;-67
2022/03/10 08:15:29;;;;;;;16.30;8.83;;;;;;;;;;5021469;28;20456;-67
2022/03/10 08:17:55;;;;;;;16.70;8.37;;;;;;;;;;5027288;28;20310;-67
2022/03/10 08:20:20;;;;;;;17.13;8.37;;;;;;;;;;5028988;28;20198;-67
2022/03/10 08:22:45;;;;;;;15.37;8.17;;;;;;;;;;5032564;28;20614;-67
2022/03/10 08:25:11;;;;;;;13.70;7.80;;;;;;;;;;5034259;28;20187;-66
2022/03/10 08:27:36;;;;;;;17.90;8.67;;;;;;;;;;5030485;28;20265;-67
2022/03/10 08:30:02;;;;;;;18.37;8.90;;;;;;;;;;5026783;28;20182;-67
2022/03/10 08:32:28;;;;;;;18.97;8.97;;;;;;;;;;5028911;28;20178;-67
2022/03/10 08:34:53;;;;;;;15.33;8.83;;;;;;;;;;5028544;28;20495;-68
2022/03/10 08:37:18;;;;;;;17.00;8.60;;;;;;;;;;5030091;28;20256;-67
2022/03/10 08:39:44;;;;;;;14.27;8.67;;;;;;;;;;5025315;28;20261;-67
2022/03/10 08:42:10;;;;;;;19.50;8.70;;;;;;;;;;5030071;28;20328;-67
2022/03/10 08:44:35;;;;;;;16.33;8.80;;;;;;;;;;5026881;28;20311;-67
2022/03/10 08:47:01;;;;;;;19.83;9.10;;;;;;;;;;5024431;28;20205;-67
2022/03/10 08:49:26;;;;;;;17.27;9.13;;;;;;;;;;5028353;28;20599;-67
2022/03/10 08:51:52;;;;;;;18.30;8.30;;;;;;;;;;5033289;28;20185;-69
2022/03/10 08:54:17;;;;;;;17.13;9.03;;;;;;;;;;5029525;28;20186;-67
2022/03/10 08:56:43;;;;;;;15.10;8.33;;;;;;;;;;5041336;28;20307;-68
2022/03/10 08:59:08;;;;;;;15.77;8.20;;;;;;;;;;5045331;28;20189;-68
2022/03/10 09:01:34;;;;;;;17.40;9.07;;;;;;;;;;5034335;28;20190;-68
2022/03/10 09:03:59;;;;;;;17.50;8.47;;;;;;;;;;5043562;28;20531;-68
2022/03/10 09:06:24;;;;;;;17.87;9.20;;;;;;;;;;5041986;28;20672;-67
2022/03/10 09:08:50;;;;;;;19.17;9.03;;;;;;;;;;5043729;28;20277;-67
2022/03/10 09:11:16;;;;;;;17.57;8.90;;;;;;;;;;5046337;28;20964;-67
2022/03/10 09:13:48;;;;;;;14.47;8.97;;;;;;;;;;5041421;28;20169;-67
2022/03/10 09:16:14;;;;;;;17.63;8.67;;;;;;;;;;5028725;28;20187;-68
2022/03/10 09:18:41;;;;;;;17.77;9.00;;;;;;;;;;5041564;28;20281;-68
2022/03/10 09:21:07;;;;;;;17.77;9.30;;;;;;;;;;5038469;28;20373;-68
2022/03/10 09:23:32;;;;;;;16.80;8.27;;;;;;;;;;5048895;28;20557;-68
2022/03/10 09:25:57;;;;;;;17.90;9.33;;;;;;;;;;5038650;28;20178;-67
2022/03/10 09:28:23;;;;;;;14.77;8.90;;;;;;;;;;5036524;28;20667;-67
2022/03/10 09:30:48;;;;;;;18.10;9.00;;;;;;;;;;5047068;28;20236;-67
2022/03/10 09:33:13;;;;;;;16.13;9.67;;;;;;;;;;5043588;28;20186;-67
2022/03/10 09:35:39;;;;;;;15.10;8.43;;;;;;;;;;5038294;28;20183;-67
2022/03/10 09:38:04;;;;;;;17.73;9.13;;;;;;;;;;5038330;28;20261;-67
2022/03/10 09:40:29;;;;;;;17.47;9.20;;;;;;;;;;5041664;28;20197;-67
2022/03/10 09:42:55;;;;;;;17.93;8.93;;;;;;;;;;5043842;28;20235;-67
2022/03/10 09:45:20;;;;;;;16.90;9.30;;;;;;;;;;5043840;28;20178;-67
2022/03/10 09:47:46;;;;;;;16.87;9.27;;;;;;;;;;5034761;28;20186;-67
2022/03/10 09:50:14;;;;;;;16.92;9.32;;;;;;;;;;5038279;28;20205;-67
2022/03/10 09:52:42;;;;;;;18.75;9.48;;;;;;;;;;5044746;28;20202;-68
2022/03/10 09:55:09;;;;;;;19.25;9.23;;;;;;;;;;5044999;28;20269;-67
2022/03/10 09:57:39;;;;;;;21.60;9.87;;;;;;;;;;5039807;28;20180;-68
2022/03/10 10:00:05;;;;;;;20.42;9.35;;;;;;;;;;5036165;28;20210;-68
2022/03/10 10:02:31;;;;;;;17.48;9.75;;;;;;;;;;5043671;28;20579;-67
2022/03/10 10:04:56;;;;;;;16.80;9.20;;;;;;;;;;5030522;28;20277;-68
2022/03/10 10:07:26;;;;;;;17.45;9.60;;;;;;;;;;5042869;28;20574;-67
2022/03/10 10:09:55;;;;;;;17.27;9.90;;;;;;;;;;5045890;28;20181;-67
2022/03/10 10:12:25;;;;;;;18.75;10.02;;;;;;;;;;5023545;28;20181;-67
2022/03/10 10:14:51;;;;;;;20.40;9.98;;;;;;;;;;5045271;28;20192;-68
2022/03/10 10:17:25;;;;;;;18.83;9.63;;;;;;;;;;5033253;28;20174;-67
2022/03/10 10:19:54;;;;;;;18.85;10.65;;;;;;;;;;5028767;28;20252;-67
2022/03/10 10:22:20;;;;;;;18.95;10.85;;;;;;;;;;5027563;28;20194;-67
2022/03/10 10:24:50;;;;;;;20.50;10.38;;;;;;;;;;5033674;28;20178;-67
2022/03/10 10:27:23;;;;;;;18.33;11.10;;;;;;;;;;5032749;28;20209;-67
2022/03/10 10:30:00;;;;;;;19.58;10.38;;;;;;;;;;5032034;28;20211;-68
2022/03/10 10:32:44;;;;;;;18.92;10.55;;;;;;;;;;5029995;28;20181;-68
2022/03/10 10:35:13;;;;;;;25.30;11.40;;;;;;;;;;5025038;28;20524;-68
2022/03/10 10:37:42;;;;;;;20.70;11.35;;;;;;;;;;5023025;28;20197;-67
2022/03/10 10:40:09;;;;;;;17.83;11.07;;;;;;;;;;5026436;28;20189;-67
2022/03/10 10:42:37;;;;;;;22.83;11.45;;;;;;;;;;5019488;28;20260;-67
2022/03/10 10:45:25;;;;;;;20.42;11.30;;;;;;;;;;5045278;28;20234;-67
2022/03/10 10:48:04;;;;;;;19.80;11.68;;;;;;;;;;5037189;28;20220;-68
2022/03/10 10:50:38;;;;;;;20.00;11.25;;;;;;;;;;5044114;28;20572;-68
2022/03/10 10:53:04;;;;;;;21.70;10.98;;;;;;;;;;5021433;28;20322;-68
2022/03/10 10:55:32;;;;;;;21.38;11.30;;;;;;;;;;5046762;28;20535;-68
2022/03/10 10:58:07;;;;;;;21.42;11.60;;;;;;;;;;5037784;28;20186;-67
2022/03/10 11:00:47;;;;;;;23.73;11.32;;;;;;;;;;5016052;28;20205;-67
2022/03/10 11:03:28;;;;;;;20.85;11.32;;;;;;;;;;5015728;28;20188;-67
2022/03/10 11:05:54;;;;;;;20.27;12.15;;;;;;;;;;5027313;28;20545;-68
2022/03/10 11:08:22;;;;;;;24.23;12.02;;;;;;;;;;5020863;28;20375;-67
2022/03/10 11:10:48;;;;;;;21.42;11.25;;;;;;;;;;5024912;28;20696;-67
2022/03/10 11:13:14;;;;;;;23.70;12.00;;;;;;;;;;5017266;28;20192;-67
2022/03/10 11:15:42;;;;;;;22.60;12.15;;;;;;;;;;5024843;28;20178;-67
2022/03/10 11:18:10;;;;;;;21.30;11.00;;;;;;;;;;5024049;28;20375;-68
2022/03/10 11:20:38;;;;;;;21.88;11.52;;;;;;;;;;5023879;28;20190;-67
2022/03/10 11:23:26;;;;;;;23.05;12.45;;;;;;;;;;5017824;28;20537;-68
2022/03/10 11:25:55;;;;;;;20.80;11.38;;;;;;;;;;5039556;28;20280;-67
2022/03/10 11:28:27;;;;;;;22.23;11.73;;;;;;;;;;5038758;28;20185;-67
2022/03/10 11:30:56;;;;;;;21.48;11.52;;;;;;;;;;5032430;28;20631;-67
2022/03/10 11:33:32;;;;;;;22.20;12.07;;;;;;;;;;5023097;28;20194;-67
2022/03/10 11:35:58;;;;;;;22.48;11.73;;;;;;;;;;5026207;28;20178;-67
2022/03/10 11:39:02;;;;;;;24.13;12.60;;;;;;;;;;5020269;28;20210;-67
2022/03/10 11:41:40;;;;;;;24.23;12.82;;;;;;;;;;5033379;28;20252;-67
2022/03/10 11:44:06;;;;;;;24.73;12.35;;;;;;;;;;5030495;28;20178;-66
2022/03/10 11:46:31;;;;;;;22.67;12.30;;;;;;;;;;5032777;28;20274;-67
2022/03/10 11:49:08;;;;;;;22.23;11.90;;;;;;;;;;5027409;28;20181;-67
2022/03/10 11:51:43;;;;;;;23.73;12.63;;;;;;;;;;5020433;28;20205;-67
2022/03/10 11:54:10;;;;;;;24.02;12.32;;;;;;;;;;5018495;28;20408;-67
2022/03/10 11:56:44;;;;;;;23.75;12.27;;;;;;;;;;5038794;28;20213;-66
2022/03/10 11:59:27;;;;;;;22.83;11.88;;;;;;;;;;5019293;28;20193;-66
2022/03/10 12:01:55;;;;;;;22.90;11.95;;;;;;;;;;5037244;28;20216;-66
2022/03/10 12:04:21;;;;;;;23.58;12.50;;;;;;;;;;5034719;28;20184;-66
2022/03/10 12:06:59;;;;;;;24.90;11.90;;;;;;;;;;5037879;28;20229;-66
2022/03/10 12:09:41;;;;;;;20.35;11.52;;;;;;;;;;5038611;28;20261;-66
2022/03/10 12:12:40;;;;;;;25.48;12.95;;;;;;;;;;5035933;28;20174;-66
2022/03/10 12:15:23;;;;;;;23.75;12.63;;;;;;;;;;5041106;28;20197;-67
2022/03/10 12:17:51;;;;;;;23.00;11.23;;;;;;;;;;5034911;28;20189;-67
2022/03/10 12:20:20;;;;;;;24.08;12.25;;;;;;;;;;5041454;28;20184;-67
2022/03/10 12:23:03;;;;;;;23.05;11.43;;;;;;;;;;5034677;28;20190;-67
2022/03/10 12:25:35;;;;;;;23.08;12.00;;;;;;;;;;5037608;28;20366;-67
2022/03/10 12:28:01;;;;;;;23.48;12.05;;;;;;;;;;5044388;28;20178;-67
2022/03/10 12:30:27;;;;;;;24.50;12.02;;;;;;;;;;5046809;28;20239;-66
2022/03/10 12:32:54;;;;;;;19.33;11.77;;;;;;;;;;5034138;28;20182;-67
2022/03/10 12:35:35;;;;;;;22.00;12.02;;;;;;;;;;5040445;28;20534;-67
2022/03/10 12:38:01;;;;;;;23.85;12.45;;;;;;;;;;5043853;28;20190;-67
2022/03/10 12:40:28;;;;;;;22.30;12.27;;;;;;;;;;5037828;28;20173;-67
2022/03/10 12:43:04;;;;;;;22.70;11.60;;;;;;;;;;5031703;28;20178;-68
2022/03/10 12:45:30;;;;;;;21.88;12.43;;;;;;;;;;5031060;28;20220;-68
2022/03/10 12:48:03;;;;;;;25.30;12.05;;;;;;;;;;5030987;28;20532;-67
2022/03/10 12:50:31;;;;;;;22.52;11.70;;;;;;;;;;5024085;28;20222;-67
2022/03/10 12:52:56;;;;;;;22.23;12.50;;;;;;;;;;5039426;28;20212;-67
2022/03/10 12:55:27;;;;;;;23.20;12.05;;;;;;;;;;5032319;28;20185;-67
2022/03/10 12:57:58;;;;;;;20.35;11.38;;;;;;;;;;5033154;28;20178;-67
2022/03/10 13:00:24;;;;;;;26.52;12.23;;;;;;;;;;5044411;28;20723;-67
2022/03/10 13:02:54;;;;;;;22.08;12.35;;;;;;;;;;5038039;28;20186;-67
2022/03/10 13:05:20;;;;;;;22.83;12.18;;;;;;;;;;5043695;28;20640;-67
2022/03/10 13:07:46;;;;;;;24.50;12.45;;;;;;;;;;5039840;28;20225;-67
2022/03/10 13:10:15;;;;;;;22.88;12.45;;;;;;;;;;5039176;28;20205;-67
2022/03/10 13:12:43;;;;;;;30.65;13.68;;;;;;;;;;5041369;28;20714;-67
2022/03/10 13:15:16;;;;;;;26.58;12.70;;;;;;;;;;5043553;28;20195;-68
2022/03/10 13:17:43;;;;;;;23.83;13.35;;;;;;;;;;5045284;28;20186;-67
2022/03/10 13:20:26;;;;;;;24.65;13.05;;;;;;;;;;5034766;28;20181;-67
2022/03/10 13:22:53;;;;;;;25.60;13.10;;;;;;;;;;5041548;28;20253;-66
2022/03/10 13:25:20;;;;;;;25.08;13.73;;;;;;;;;;5048724;28;20170;-66
2022/03/10 13:27:47;;;;;;;24.65;14.20;;;;;;;;;;5045944;28;20197;-67
2022/03/10 13:30:25;;;;;;;25.48;13.52;;;;;;;;;;5042788;28;20185;-67
2022/03/10 13:32:53;;;;;;;27.45;13.25;;;;;;;;;;5042817;28;20182;-66
2022/03/10 13:35:27;;;;;;;25.35;14.40;;;;;;;;;;5044583;28;20187;-67
2022/03/10 13:37:55;;;;;;;31.05;14.10;;;;;;;;;;5035518;28;20205;-67
2022/03/10 13:40:20;;;;;;;28.13;14.18;;;;;;;;;;5046832;28;20177;-66
2022/03/10 13:42:50;;;;;;;28.13;14.23;;;;;;;;;;5039426;28;20231;-67
2022/03/10 13:45:15;;;;;;;27.20;15.02;;;;;;;;;;5046542;28;20173;-68
2022/03/10 13:47:54;;;;;;;28.98;15.13;;;;;;;;;;5037327;28;20232;-67
2022/03/10 13:50:25;;;;;;;25.77;14.35;;;;;;;;;;5020491;28;20198;-67
2022/03/10 13:52:59;;;;;;;27.25;14.90;;;;;;;;;;5033842;28;20545;-67
2022/03/10 13:55:45;;;;;;;26.42;14.85;;;;;;;;;;5036985;28;20564;-67
2022/03/10 13:58:11;;;;;;;24.65;13.77;;;;;;;;;;5038523;28;20178;-67
2022/03/10 14:00:47;;;;;;;27.95;14.80;;;;;;;;;;5047313;28;20528;-67
2022/03/10 14:03:21;;;;;;;30.58;15.73;;;;;;;;;;5034623;28;20235;-66
2022/03/10 14:05:53;;;;;;;29.63;14.70;;;;;;;;;;5047150;28;20170;-66
2022/03/10 14:08:21;;;;;;;28.42;14.93;;;;;;;;;;5041032;28;20239;-67
2022/03/10 14:11:01;;;;;;;27.95;15.02;;;;;;;;;;5038396;28;20178;-67
2022/03/10 14:13:30;;;;;;;27.80;15.60;;;;;;;;;;5043927;28;20185;-67
2022/03/10 14:15:58;;;;;;;23.35;13.93;;;;;;;;;;5043101;28;20227;-67
2022/03/10 14:18:27;;;;;;;29.55;15.50;;;;;;;;;;5045949;28;20697;-67
2022/03/10 14:20:56;;;;;;;29.38;16.02;;;;;;;;;;5038949;28;20197;-68
2022/03/10 14:23:25;;;;;;;30.30;15.60;;;;;;;;;;5044593;28;20181;-67
2022/03/10 14:25:53;;;;;;;29.42;16.05;;;;;;;;;;5047206;28;20189;-67
2022/03/10 14:28:34;;;;;;;28.73;15.88;;;;;;;;;;5038608;28;20329;-67